sensor_id;sensor_type;location;lat;lon;timestamp;temperature;humidity
9057;DHT22;4563;54.756;9.400;2023-05-08T00:01:28;13.10;59.90
9057;DHT22;4563;54.756;9.400;2023-05-08T00:03:55;13.10;59.90
9057;DHT22;4563;54.756;9.400;2023-05-08T00:06:22;13.00;59.80
9057;DHT22;4563;54.756;9.400;2023-05-08T00:08:49;13.00;59.90
9057;DHT22;4563;54.756;9.400;2023-05-08T00:11:16;13.00;60.00
9057;DHT22;4563;54.756;9.400;2023-05-08T00:13:44;13.00;60.10
9057;DHT22;4563;54.756;9.400;2023-05-08T00:16:11;13.00;60.10
9057;DHT22;4563;54.756;9.400;2023-05-08T00:18:39;12.90;60.10
9057;DHT22;4563;54.756;9.400;2023-05-08T00:21:05;12.90;60.20
9057;DHT22;4563;54.756;9.400;2023-05-08T00:23:32;12.90;60.30
9057;DHT22;4563;54.756;9.400;2023-05-08T00:25:59;12.90;60.40
9057;DHT22;4563;54.756;9.400;2023-05-08T00:28:26;12.90;60.50
9057;DHT22;4563;54.756;9.400;2023-05-08T00:30:54;12.90;61.30
9057;DHT22;4563;54.756;9.400;2023-05-08T00:33:21;12.80;60.50
9057;DHT22;4563;54.756;9.400;2023-05-08T00:35:48;12.80;60.50
9057;DHT22;4563;54.756;9.400;2023-05-08T00:38:14;12.80;60.60
9057;DHT22;4563;54.756;9.400;2023-05-08T00:40:41;12.80;60.70
9057;DHT22;4563;54.756;9.400;2023-05-08T00:43:08;12.80;60.70
9057;DHT22;4563;54.756;9.400;2023-05-08T00:45:36;12.80;60.70
9057;DHT22;4563;54.756;9.400;2023-05-08T00:48:07;12.70;60.80
9057;DHT22;4563;54.756;9.400;2023-05-08T00:50:34;12.70;60.90
9057;DHT22;4563;54.756;9.400;2023-05-08T00:53:02;12.70;60.90
9057;DHT22;4563;54.756;9.400;2023-05-08T00:55:30;12.70;61.00
9057;DHT22;4563;54.756;9.400;2023-05-08T00:57:58;12.70;61.10
9057;DHT22;4563;54.756;9.400;2023-05-08T01:00:26;12.70;61.20
9057;DHT22;4563;54.756;9.400;2023-05-08T01:02:52;12.60;61.10
9057;DHT22;4563;54.756;9.400;2023-05-08T01:05:21;12.60;61.20
9057;DHT22;4563;54.756;9.400;2023-05-08T01:07:47;12.60;62.00
9057;DHT22;4563;54.756;9.400;2023-05-08T01:10:14;12.60;61.30
9057;DHT22;4563;54.756;9.400;2023-05-08T01:12:50;12.60;61.30
9057;DHT22;4563;54.756;9.400;2023-05-08T01:15:26;12.60;61.50
9057;DHT22;4563;54.756;9.400;2023-05-08T01:18:03;12.60;61.50
9057;DHT22;4563;54.756;9.400;2023-05-08T01:20:41;12.50;61.40
9057;DHT22;4563;54.756;9.400;2023-05-08T01:23:38;12.50;61.40
9057;DHT22;4563;54.756;9.400;2023-05-08T01:26:31;12.50;61.50
9057;DHT22;4563;54.756;9.400;2023-05-08T01:29:31;12.50;61.50
9057;DHT22;4563;54.756;9.400;2023-05-08T01:32:13;12.50;61.60
9057;DHT22;4563;54.756;9.400;2023-05-08T01:34:48;12.50;61.60
9057;DHT22;4563;54.756;9.400;2023-05-08T01:37:25;12.50;61.70
9057;DHT22;4563;54.756;9.400;2023-05-08T01:39:59;12.40;61.60
9057;DHT22;4563;54.756;9.400;2023-05-08T01:42:38;12.40;61.70
9057;DHT22;4563;54.756;9.400;2023-05-08T01:45:13;12.40;61.70
9057;DHT22;4563;54.756;9.400;2023-05-08T01:47:50;12.40;61.70
9057;DHT22;4563;54.756;9.400;2023-05-08T01:50:23;12.40;61.80
9057;DHT22;4563;54.756;9.400;2023-05-08T01:52:56;12.30;61.70
9057;DHT22;4563;54.756;9.400;2023-05-08T01:55:26;12.30;61.70
9057;DHT22;4563;54.756;9.400;2023-05-08T01:57:57;12.30;61.80
9057;DHT22;4563;54.756;9.400;2023-05-08T02:00:25;12.30;61.80
9057;DHT22;4563;54.756;9.400;2023-05-08T02:02:54;12.30;61.80
9057;DHT22;4563;54.756;9.400;2023-05-08T02:05:23;12.30;61.90
9057;DHT22;4563;54.756;9.400;2023-05-08T02:07:51;12.30;62.00
9057;DHT22;4563;54.756;9.400;2023-05-08T02:10:20;12.20;61.90
9057;DHT22;4563;54.756;9.400;2023-05-08T02:12:49;12.20;61.90
9057;DHT22;4563;54.756;9.400;2023-05-08T02:15:18;12.20;62.00
9057;DHT22;4563;54.756;9.400;2023-05-08T02:17:45;12.20;62.00
9057;DHT22;4563;54.756;9.400;2023-05-08T02:20:15;12.20;62.00
9057;DHT22;4563;54.756;9.400;2023-05-08T02:22:45;12.10;62.00
9057;DHT22;4563;54.756;9.400;2023-05-08T02:25:14;12.10;62.00
9057;DHT22;4563;54.756;9.400;2023-05-08T02:27:44;12.10;62.00
9057;DHT22;4563;54.756;9.400;2023-05-08T02:30:13;12.10;62.00
9057;DHT22;4563;54.756;9.400;2023-05-08T02:32:41;12.10;62.10
9057;DHT22;4563;54.756;9.400;2023-05-08T02:35:10;12.10;62.20
9057;DHT22;4563;54.756;9.400;2023-05-08T02:37:40;12.00;62.10
9057;DHT22;4563;54.756;9.400;2023-05-08T02:40:09;12.00;62.50
9057;DHT22;4563;54.756;9.400;2023-05-08T02:42:37;12.00;62.30
9057;DHT22;4563;54.756;9.400;2023-05-08T02:45:05;12.00;62.30
9057;DHT22;4563;54.756;9.400;2023-05-08T02:47:38;12.00;62.30
9057;DHT22;4563;54.756;9.400;2023-05-08T02:50:12;11.90;62.20
9057;DHT22;4563;54.756;9.400;2023-05-08T02:52:44;11.90;62.30
9057;DHT22;4563;54.756;9.400;2023-05-08T02:55:19;11.90;62.20
9057;DHT22;4563;54.756;9.400;2023-05-08T02:57:55;11.90;62.30
9057;DHT22;4563;54.756;9.400;2023-05-08T03:00:31;11.90;62.30
9057;DHT22;4563;54.756;9.400;2023-05-08T03:03:02;11.80;62.40
9057;DHT22;4563;54.756;9.400;2023-05-08T03:05:32;11.80;62.30
9057;DHT22;4563;54.756;9.400;2023-05-08T03:08:04;11.80;62.40
9057;DHT22;4563;54.756;9.400;2023-05-08T03:10:33;11.80;62.50
9057;DHT22;4563;54.756;9.400;2023-05-08T03:13:03;11.70;63.20
9057;DHT22;4563;54.756;9.400;2023-05-08T03:15:37;11.70;62.50
9057;DHT22;4563;54.756;9.400;2023-05-08T03:18:10;11.70;62.50
9057;DHT22;4563;54.756;9.400;2023-05-08T03:20:40;11.70;62.70
9057;DHT22;4563;54.756;9.400;2023-05-08T03:23:10;11.70;62.90
9057;DHT22;4563;54.756;9.400;2023-05-08T03:25:40;11.60;62.70
9057;DHT22;4563;54.756;9.400;2023-05-08T03:28:09;11.60;62.80
9057;DHT22;4563;54.756;9.400;2023-05-08T03:30:39;11.60;62.80
9057;DHT22;4563;54.756;9.400;2023-05-08T03:33:06;11.60;62.90
9057;DHT22;4563;54.756;9.400;2023-05-08T03:35:34;11.60;63.00
9057;DHT22;4563;54.756;9.400;2023-05-08T03:38:01;11.50;63.00
9057;DHT22;4563;54.756;9.400;2023-05-08T03:40:30;11.50;63.00
9057;DHT22;4563;54.756;9.400;2023-05-08T03:43:01;11.50;63.10
9057;DHT22;4563;54.756;9.400;2023-05-08T03:45:29;11.50;63.30
9057;DHT22;4563;54.756;9.400;2023-05-08T03:47:58;11.50;63.30
9057;DHT22;4563;54.756;9.400;2023-05-08T03:50:25;11.50;63.40
9057;DHT22;4563;54.756;9.400;2023-05-08T03:52:53;11.50;64.30
9057;DHT22;4563;54.756;9.400;2023-05-08T03:55:20;11.50;63.60
9057;DHT22;4563;54.756;9.400;2023-05-08T03:57:52;11.50;63.70
9057;DHT22;4563;54.756;9.400;2023-05-08T04:00:28;11.50;63.90
9057;DHT22;4563;54.756;9.400;2023-05-08T04:03:08;11.50;63.90
9057;DHT22;4563;54.756;9.400;2023-05-08T04:05:46;11.40;64.00
9057;DHT22;4563;54.756;9.400;2023-05-08T04:08:19;11.40;64.00
9057;DHT22;4563;54.756;9.400;2023-05-08T04:10:50;11.40;64.10
9057;DHT22;4563;54.756;9.400;2023-05-08T04:13:26;11.50;64.20
9057;DHT22;4563;54.756;9.400;2023-05-08T04:15:59;11.40;64.20
9057;DHT22;4563;54.756;9.400;2023-05-08T04:18:35;11.50;64.40
9057;DHT22;4563;54.756;9.400;2023-05-08T04:21:07;11.50;64.40
9057;DHT22;4563;54.756;9.400;2023-05-08T04:23:35;11.40;64.30
9057;DHT22;4563;54.756;9.400;2023-05-08T04:26:04;11.50;64.40
9057;DHT22;4563;54.756;9.400;2023-05-08T04:28:33;11.50;64.50
9057;DHT22;4563;54.756;9.400;2023-05-08T04:31:03;11.50;64.40
9057;DHT22;4563;54.756;9.400;2023-05-08T04:33:30;11.50;64.40
9057;DHT22;4563;54.756;9.400;2023-05-08T04:36:00;11.50;64.50
9057;DHT22;4563;54.756;9.400;2023-05-08T04:38:28;11.50;64.50
9057;DHT22;4563;54.756;9.400;2023-05-08T04:40:55;11.60;64.60
9057;DHT22;4563;54.756;9.400;2023-05-08T04:43:22;11.60;64.70
9057;DHT22;4563;54.756;9.400;2023-05-08T04:45:50;11.70;65.70
9057;DHT22;4563;54.756;9.400;2023-05-08T04:48:17;11.60;64.90
9057;DHT22;4563;54.756;9.400;2023-05-08T04:50:43;11.70;65.20
9057;DHT22;4563;54.756;9.400;2023-05-08T04:53:10;11.80;65.50
9057;DHT22;4563;54.756;9.400;2023-05-08T04:55:37;11.80;65.60
9057;DHT22;4563;54.756;9.400;2023-05-08T04:58:04;11.90;65.60
9057;DHT22;4563;54.756;9.400;2023-05-08T05:00:31;11.90;65.40
9057;DHT22;4563;54.756;9.400;2023-05-08T05:02:59;12.00;65.30
9057;DHT22;4563;54.756;9.400;2023-05-08T05:05:25;12.00;65.10
9057;DHT22;4563;54.756;9.400;2023-05-08T05:07:52;12.10;65.10
9057;DHT22;4563;54.756;9.400;2023-05-08T05:10:19;12.20;65.00
9057;DHT22;4563;54.756;9.400;2023-05-08T05:12:46;12.20;64.80
9057;DHT22;4563;54.756;9.400;2023-05-08T05:15:13;12.20;64.60
9057;DHT22;4563;54.756;9.400;2023-05-08T05:17:40;12.30;64.60
9057;DHT22;4563;54.756;9.400;2023-05-08T05:20:09;12.30;64.40
9057;DHT22;4563;54.756;9.400;2023-05-08T05:22:36;12.30;64.30
9057;DHT22;4563;54.756;9.400;2023-05-08T05:25:03;12.40;64.50
9057;DHT22;4563;54.756;9.400;2023-05-08T05:27:33;12.50;64.40
9057;DHT22;4563;54.756;9.400;2023-05-08T05:29:59;12.50;64.30
9057;DHT22;4563;54.756;9.400;2023-05-08T05:32:26;12.50;64.20
9057;DHT22;4563;54.756;9.400;2023-05-08T05:34:53;12.50;64.10
9057;DHT22;4563;54.756;9.400;2023-05-08T05:37:22;12.60;64.10
9057;DHT22;4563;54.756;9.400;2023-05-08T05:39:49;12.60;64.00
9057;DHT22;4563;54.756;9.400;2023-05-08T05:42:16;12.70;64.00
9057;DHT22;4563;54.756;9.400;2023-05-08T05:44:42;12.70;63.90
9057;DHT22;4563;54.756;9.400;2023-05-08T05:47:09;12.80;63.90
9057;DHT22;4563;54.756;9.400;2023-05-08T05:49:36;12.80;63.80
9057;DHT22;4563;54.756;9.400;2023-05-08T05:52:04;12.80;63.80
9057;DHT22;4563;54.756;9.400;2023-05-08T05:54:32;12.90;63.80
9057;DHT22;4563;54.756;9.400;2023-05-08T05:56:59;12.90;63.70
9057;DHT22;4563;54.756;9.400;2023-05-08T05:59:26;13.00;63.70
9057;DHT22;4563;54.756;9.400;2023-05-08T06:01:52;13.00;63.60
9057;DHT22;4563;54.756;9.400;2023-05-08T06:04:19;13.00;63.40
9057;DHT22;4563;54.756;9.400;2023-05-08T06:06:46;13.10;63.40
9057;DHT22;4563;54.756;9.400;2023-05-08T06:09:13;13.10;63.40
9057;DHT22;4563;54.756;9.400;2023-05-08T06:11:41;13.20;63.30
9057;DHT22;4563;54.756;9.400;2023-05-08T06:14:08;13.20;63.20
9057;DHT22;4563;54.756;9.400;2023-05-08T06:16:35;13.30;63.20
9057;DHT22;4563;54.756;9.400;2023-05-08T06:19:02;13.30;63.10
9057;DHT22;4563;54.756;9.400;2023-05-08T06:21:29;13.30;63.00
9057;DHT22;4563;54.756;9.400;2023-05-08T06:23:56;13.40;63.00
9057;DHT22;4563;54.756;9.400;2023-05-08T06:26:23;13.40;63.00
9057;DHT22;4563;54.756;9.400;2023-05-08T06:28:52;13.50;63.00
9057;DHT22;4563;54.756;9.400;2023-05-08T06:31:18;13.50;62.80
9057;DHT22;4563;54.756;9.400;2023-05-08T06:33:45;13.50;62.80
9057;DHT22;4563;54.756;9.400;2023-05-08T06:36:12;13.60;62.90
9057;DHT22;4563;54.756;9.400;2023-05-08T06:38:39;13.60;62.90
9057;DHT22;4563;54.756;9.400;2023-05-08T06:41:06;13.70;62.60
9057;DHT22;4563;54.756;9.400;2023-05-08T06:43:32;13.80;62.60
9057;DHT22;4563;54.756;9.400;2023-05-08T06:46:01;13.80;62.60
9057;DHT22;4563;54.756;9.400;2023-05-08T06:48:27;13.90;62.50
9057;DHT22;4563;54.756;9.400;2023-05-08T06:50:54;13.90;62.30
9057;DHT22;4563;54.756;9.400;2023-05-08T06:53:21;14.00;62.30
9057;DHT22;4563;54.756;9.400;2023-05-08T06:55:48;14.00;62.20
9057;DHT22;4563;54.756;9.400;2023-05-08T06:58:14;14.10;62.30
9057;DHT22;4563;54.756;9.400;2023-05-08T07:00:41;14.10;62.20
9057;DHT22;4563;54.756;9.400;2023-05-08T07:03:09;14.20;62.20
9057;DHT22;4563;54.756;9.400;2023-05-08T07:05:36;14.20;62.00
9057;DHT22;4563;54.756;9.400;2023-05-08T07:08:03;14.20;62.00
9057;DHT22;4563;54.756;9.400;2023-05-08T07:10:30;14.30;62.00
9057;DHT22;4563;54.756;9.400;2023-05-08T07:12:57;14.40;62.00
9057;DHT22;4563;54.756;9.400;2023-05-08T07:15:26;14.40;62.50
9057;DHT22;4563;54.756;9.400;2023-05-08T07:17:53;14.40;62.40
9057;DHT22;4563;54.756;9.400;2023-05-08T07:20:21;14.50;61.60
9057;DHT22;4563;54.756;9.400;2023-05-08T07:22:48;14.50;61.50
9057;DHT22;4563;54.756;9.400;2023-05-08T07:25:15;14.60;61.50
9057;DHT22;4563;54.756;9.400;2023-05-08T07:27:42;14.60;61.30
9057;DHT22;4563;54.756;9.400;2023-05-08T07:30:09;14.60;61.20
9057;DHT22;4563;54.756;9.400;2023-05-08T07:32:36;14.70;61.50
9057;DHT22;4563;54.756;9.400;2023-05-08T07:35:04;14.70;61.30
9057;DHT22;4563;54.756;9.400;2023-05-08T07:37:34;14.80;61.30
9057;DHT22;4563;54.756;9.400;2023-05-08T07:40:01;14.80;61.50
9057;DHT22;4563;54.756;9.400;2023-05-08T07:42:28;14.90;61.80
9057;DHT22;4563;54.756;9.400;2023-05-08T07:44:55;15.00;61.90
9057;DHT22;4563;54.756;9.400;2023-05-08T07:47:21;15.10;62.00
9057;DHT22;4563;54.756;9.400;2023-05-08T07:49:48;15.20;62.10
9057;DHT22;4563;54.756;9.400;2023-05-08T07:52:15;15.30;62.20
9057;DHT22;4563;54.756;9.400;2023-05-08T07:54:43;15.50;62.10
9057;DHT22;4563;54.756;9.400;2023-05-08T07:57:10;15.60;62.00
9057;DHT22;4563;54.756;9.400;2023-05-08T07:59:37;15.80;62.00
9057;DHT22;4563;54.756;9.400;2023-05-08T08:02:04;16.00;61.90
9057;DHT22;4563;54.756;9.400;2023-05-08T08:04:31;16.10;62.40
9057;DHT22;4563;54.756;9.400;2023-05-08T08:06:58;16.40;61.50
9057;DHT22;4563;54.756;9.400;2023-05-08T08:09:25;16.60;61.30
9057;DHT22;4563;54.756;9.400;2023-05-08T08:11:53;16.80;61.30
9057;DHT22;4563;54.756;9.400;2023-05-08T08:14:20;17.10;61.00
9057;DHT22;4563;54.756;9.400;2023-05-08T08:16:46;17.30;60.70
9057;DHT22;4563;54.756;9.400;2023-05-08T08:19:13;17.60;60.40
9057;DHT22;4563;54.756;9.400;2023-05-08T08:21:43;17.80;59.90
9057;DHT22;4563;54.756;9.400;2023-05-08T08:24:12;18.10;60.00
9057;DHT22;4563;54.756;9.400;2023-05-08T08:26:39;18.40;59.60
9057;DHT22;4563;54.756;9.400;2023-05-08T08:29:07;18.50;59.10
9057;DHT22;4563;54.756;9.400;2023-05-08T08:31:34;18.90;59.10
9057;DHT22;4563;54.756;9.400;2023-05-08T08:34:00;19.10;58.80
9057;DHT22;4563;54.756;9.400;2023-05-08T08:36:27;19.40;58.80
9057;DHT22;4563;54.756;9.400;2023-05-08T08:38:54;19.60;58.30
9057;DHT22;4563;54.756;9.400;2023-05-08T08:41:20;19.90;58.10
9057;DHT22;4563;54.756;9.400;2023-05-08T08:43:47;20.10;57.60
9057;DHT22;4563;54.756;9.400;2023-05-08T08:46:19;20.40;57.50
9057;DHT22;4563;54.756;9.400;2023-05-08T08:48:50;20.70;59.30
9057;DHT22;4563;54.756;9.400;2023-05-08T08:51:24;20.90;57.20
9057;DHT22;4563;54.756;9.400;2023-05-08T08:53:58;21.20;58.90
9057;DHT22;4563;54.756;9.400;2023-05-08T08:56:26;21.50;56.90
9057;DHT22;4563;54.756;9.400;2023-05-08T08:58:56;21.80;55.70
9057;DHT22;4563;54.756;9.400;2023-05-08T09:01:26;22.00;56.20
9057;DHT22;4563;54.756;9.400;2023-05-08T09:03:56;22.30;55.90
9057;DHT22;4563;54.756;9.400;2023-05-08T09:06:23;22.50;55.50
9057;DHT22;4563;54.756;9.400;2023-05-08T09:08:54;22.80;54.10
9057;DHT22;4563;54.756;9.400;2023-05-08T09:11:21;23.00;55.50
9057;DHT22;4563;54.756;9.400;2023-05-08T09:13:48;23.30;53.70
9057;DHT22;4563;54.756;9.400;2023-05-08T09:16:15;23.50;53.00
9057;DHT22;4563;54.756;9.400;2023-05-08T09:18:43;23.80;53.00
9057;DHT22;4563;54.756;9.400;2023-05-08T09:21:10;24.00;52.60
9057;DHT22;4563;54.756;9.400;2023-05-08T09:23:53;24.20;51.70
9057;DHT22;4563;54.756;9.400;2023-05-08T09:26:27;24.50;59.90
9057;DHT22;4563;54.756;9.400;2023-05-08T09:29:08;24.70;55.80
9057;DHT22;4563;54.756;9.400;2023-05-08T09:31:35;25.00;58.20
9057;DHT22;4563;54.756;9.400;2023-05-08T09:34:05;25.20;50.60
9057;DHT22;4563;54.756;9.400;2023-05-08T09:36:32;25.40;50.50
9057;DHT22;4563;54.756;9.400;2023-05-08T09:39:00;25.60;49.90
9057;DHT22;4563;54.756;9.400;2023-05-08T09:41:27;25.90;50.30
9057;DHT22;4563;54.756;9.400;2023-05-08T09:44:01;26.10;48.80
9057;DHT22;4563;54.756;9.400;2023-05-08T09:46:28;26.30;52.80
9057;DHT22;4563;54.756;9.400;2023-05-08T09:48:56;26.50;47.90
9057;DHT22;4563;54.756;9.400;2023-05-08T09:51:25;26.70;47.60
9057;DHT22;4563;54.756;9.400;2023-05-08T09:53:53;26.90;48.00
9057;DHT22;4563;54.756;9.400;2023-05-08T09:56:30;27.10;46.90
9057;DHT22;4563;54.756;9.400;2023-05-08T09:58:57;27.30;53.00
9057;DHT22;4563;54.756;9.400;2023-05-08T10:01:29;27.50;46.20
9057;DHT22;4563;54.756;9.400;2023-05-08T10:03:56;27.70;48.10
9057;DHT22;4563;54.756;9.400;2023-05-08T10:06:24;27.80;45.10
9057;DHT22;4563;54.756;9.400;2023-05-08T10:09:09;28.10;44.80
9057;DHT22;4563;54.756;9.400;2023-05-08T10:11:37;28.30;54.00
9057;DHT22;4563;54.756;9.400;2023-05-08T10:14:04;28.50;44.50
9057;DHT22;4563;54.756;9.400;2023-05-08T10:16:35;28.60;46.20
9057;DHT22;4563;54.756;9.400;2023-05-08T10:19:13;28.80;51.00
9057;DHT22;4563;54.756;9.400;2023-05-08T10:21:45;29.00;51.30
9057;DHT22;4563;54.756;9.400;2023-05-08T10:24:15;29.20;51.60
9057;DHT22;4563;54.756;9.400;2023-05-08T10:26:51;29.40;47.90
9057;DHT22;4563;54.756;9.400;2023-05-08T10:29:27;29.60;55.80
9057;DHT22;4563;54.756;9.400;2023-05-08T10:31:58;29.70;52.90
9057;DHT22;4563;54.756;9.400;2023-05-08T10:34:26;30.00;46.90
9057;DHT22;4563;54.756;9.400;2023-05-08T10:36:58;30.20;46.90
9057;DHT22;4563;54.756;9.400;2023-05-08T10:39:26;30.30;47.40
9057;DHT22;4563;54.756;9.400;2023-05-08T10:41:54;30.50;46.60
9057;DHT22;4563;54.756;9.400;2023-05-08T10:44:21;30.60;46.40
9057;DHT22;4563;54.756;9.400;2023-05-08T10:46:53;30.80;46.00
9057;DHT22;4563;54.756;9.400;2023-05-08T10:49:30;31.00;49.10
9057;DHT22;4563;54.756;9.400;2023-05-08T10:52:08;31.10;52.80
9057;DHT22;4563;54.756;9.400;2023-05-08T10:54:47;31.30;54.70
9057;DHT22;4563;54.756;9.400;2023-05-08T10:57:17;31.40;50.50
9057;DHT22;4563;54.756;9.400;2023-05-08T10:59:44;31.60;45.30
9057;DHT22;4563;54.756;9.400;2023-05-08T11:02:12;31.70;44.90
9057;DHT22;4563;54.756;9.400;2023-05-08T11:04:39;31.90;44.60
9057;DHT22;4563;54.756;9.400;2023-05-08T11:07:07;32.10;44.60
9057;DHT22;4563;54.756;9.400;2023-05-08T11:09:46;32.20;44.80
9057;DHT22;4563;54.756;9.400;2023-05-08T11:12:22;32.40;59.40
9057;DHT22;4563;54.756;9.400;2023-05-08T11:15:03;32.50;54.70
9057;DHT22;4563;54.756;9.400;2023-05-08T11:17:31;32.60;54.20
9057;DHT22;4563;54.756;9.400;2023-05-08T11:19:59;32.80;44.20
9057;DHT22;4563;54.756;9.400;2023-05-08T11:22:28;32.90;43.80
9057;DHT22;4563;54.756;9.400;2023-05-08T11:25:04;33.10;45.40
9057;DHT22;4563;54.756;9.400;2023-05-08T11:30:38;33.30;64.40
9057;DHT22;4563;54.756;9.400;2023-05-08T11:33:28;33.40;44.00
9057;DHT22;4563;54.756;9.400;2023-05-08T11:35:56;33.60;62.30
9057;DHT22;4563;54.756;9.400;2023-05-08T11:38:26;33.70;43.80
9057;DHT22;4563;54.756;9.400;2023-05-08T11:40:55;33.80;45.40
9057;DHT22;4563;54.756;9.400;2023-05-08T11:46:34;34.00;59.60
9057;DHT22;4563;54.756;9.400;2023-05-08T11:49:01;34.10;53.80
9057;DHT22;4563;54.756;9.400;2023-05-08T11:51:30;34.20;43.00
9057;DHT22;4563;54.756;9.400;2023-05-08T11:53:59;34.30;43.30
9057;DHT22;4563;54.756;9.400;2023-05-08T11:56:26;34.30;42.70
9057;DHT22;4563;54.756;9.400;2023-05-08T11:59:01;34.40;41.80
9057;DHT22;4563;54.756;9.400;2023-05-08T12:01:29;34.50;50.80
9057;DHT22;4563;54.756;9.400;2023-05-08T12:04:00;34.50;42.00
9057;DHT22;4563;54.756;9.400;2023-05-08T12:06:27;34.60;45.20
9057;DHT22;4563;54.756;9.400;2023-05-08T12:08:56;34.60;41.10
9057;DHT22;4563;54.756;9.400;2023-05-08T12:11:24;34.70;41.10
9057;DHT22;4563;54.756;9.400;2023-05-08T12:13:52;34.80;41.20
9057;DHT22;4563;54.756;9.400;2023-05-08T12:16:22;34.80;40.70
9057;DHT22;4563;54.756;9.400;2023-05-08T12:18:49;34.90;41.30
9057;DHT22;4563;54.756;9.400;2023-05-08T12:21:16;34.90;40.60
9057;DHT22;4563;54.756;9.400;2023-05-08T12:23:43;35.00;40.50
9057;DHT22;4563;54.756;9.400;2023-05-08T12:26:10;35.00;40.70
9057;DHT22;4563;54.756;9.400;2023-05-08T12:28:38;35.00;40.10
9057;DHT22;4563;54.756;9.400;2023-05-08T12:31:05;35.00;40.10
9057;DHT22;4563;54.756;9.400;2023-05-08T12:33:33;35.10;39.80
9057;DHT22;4563;54.756;9.400;2023-05-08T12:36:03;35.10;39.70
9057;DHT22;4563;54.756;9.400;2023-05-08T12:38:30;35.10;41.80
9057;DHT22;4563;54.756;9.400;2023-05-08T12:40:57;35.20;39.60
9057;DHT22;4563;54.756;9.400;2023-05-08T12:43:31;35.20;39.40
9057;DHT22;4563;54.756;9.400;2023-05-08T12:46:01;35.20;46.90
9057;DHT22;4563;54.756;9.400;2023-05-08T12:48:28;35.10;39.60
9057;DHT22;4563;54.756;9.400;2023-05-08T12:51:01;35.20;39.00
9057;DHT22;4563;54.756;9.400;2023-05-08T12:53:30;35.20;43.80
9057;DHT22;4563;54.756;9.400;2023-05-08T12:56:00;35.20;39.00
9057;DHT22;4563;54.756;9.400;2023-05-08T12:58:29;35.20;39.90
9057;DHT22;4563;54.756;9.400;2023-05-08T13:01:06;35.20;38.80
9057;DHT22;4563;54.756;9.400;2023-05-08T13:03:35;35.10;48.10
9057;DHT22;4563;54.756;9.400;2023-05-08T13:06:02;35.10;38.80
9057;DHT22;4563;54.756;9.400;2023-05-08T13:08:30;35.10;39.00
9057;DHT22;4563;54.756;9.400;2023-05-08T13:10:57;35.00;38.50
9057;DHT22;4563;54.756;9.400;2023-05-08T13:13:25;35.00;38.40
9057;DHT22;4563;54.756;9.400;2023-05-08T13:15:54;34.80;37.90
9057;DHT22;4563;54.756;9.400;2023-05-08T13:18:24;34.70;38.10
9057;DHT22;4563;54.756;9.400;2023-05-08T13:20:51;34.70;39.10
9057;DHT22;4563;54.756;9.400;2023-05-08T13:23:18;34.60;38.20
9057;DHT22;4563;54.756;9.400;2023-05-08T13:26:08;34.50;37.80
9057;DHT22;4563;54.756;9.400;2023-05-08T13:28:51;34.40;46.10
9057;DHT22;4563;54.756;9.400;2023-05-08T13:31:23;34.30;43.20
9057;DHT22;4563;54.756;9.400;2023-05-08T13:34:10;34.10;36.80
9057;DHT22;4563;54.756;9.400;2023-05-08T13:36:41;34.00;38.70
9057;DHT22;4563;54.756;9.400;2023-05-08T13:39:10;33.90;37.10
9057;DHT22;4563;54.756;9.400;2023-05-08T13:41:39;33.70;36.90
9057;DHT22;4563;54.756;9.400;2023-05-08T13:44:07;33.60;36.80
9057;DHT22;4563;54.756;9.400;2023-05-08T13:46:34;33.50;37.30
9057;DHT22;4563;54.756;9.400;2023-05-08T13:49:03;33.40;36.40
9057;DHT22;4563;54.756;9.400;2023-05-08T13:51:32;33.30;36.20
9057;DHT22;4563;54.756;9.400;2023-05-08T13:54:00;33.20;35.70
9057;DHT22;4563;54.756;9.400;2023-05-08T13:56:31;33.10;35.30
9057;DHT22;4563;54.756;9.400;2023-05-08T13:59:09;33.00;37.40
9057;DHT22;4563;54.756;9.400;2023-05-08T14:01:40;32.80;37.40
9057;DHT22;4563;54.756;9.400;2023-05-08T14:04:07;32.70;36.80
9057;DHT22;4563;54.756;9.400;2023-05-08T14:06:35;32.50;36.90
9057;DHT22;4563;54.756;9.400;2023-05-08T14:09:04;32.40;36.70
9057;DHT22;4563;54.756;9.400;2023-05-08T14:11:31;32.30;37.30
9057;DHT22;4563;54.756;9.400;2023-05-08T14:13:57;32.10;37.50
9057;DHT22;4563;54.756;9.400;2023-05-08T14:16:24;32.00;37.20
9057;DHT22;4563;54.756;9.400;2023-05-08T14:18:51;31.90;36.90
9057;DHT22;4563;54.756;9.400;2023-05-08T14:21:18;31.70;37.40
9057;DHT22;4563;54.756;9.400;2023-05-08T14:23:46;31.60;36.40
9057;DHT22;4563;54.756;9.400;2023-05-08T14:26:13;31.50;36.90
9057;DHT22;4563;54.756;9.400;2023-05-08T14:28:40;31.30;36.90
9057;DHT22;4563;54.756;9.400;2023-05-08T14:31:07;31.20;36.40
9057;DHT22;4563;54.756;9.400;2023-05-08T14:33:37;31.00;36.70
9057;DHT22;4563;54.756;9.400;2023-05-08T14:36:06;30.80;36.50
9057;DHT22;4563;54.756;9.400;2023-05-08T14:38:33;30.70;36.90
9057;DHT22;4563;54.756;9.400;2023-05-08T14:41:01;30.50;36.90
9057;DHT22;4563;54.756;9.400;2023-05-08T14:43:28;30.30;37.00
9057;DHT22;4563;54.756;9.400;2023-05-08T14:45:55;30.20;37.20
9057;DHT22;4563;54.756;9.400;2023-05-08T14:48:22;30.10;36.60
9057;DHT22;4563;54.756;9.400;2023-05-08T14:50:48;29.90;37.40
9057;DHT22;4563;54.756;9.400;2023-05-08T14:53:15;29.80;37.90
9057;DHT22;4563;54.756;9.400;2023-05-08T14:55:42;29.60;37.30
9057;DHT22;4563;54.756;9.400;2023-05-08T14:58:10;29.40;37.70
9057;DHT22;4563;54.756;9.400;2023-05-08T15:00:37;29.30;36.70
9057;DHT22;4563;54.756;9.400;2023-05-08T15:03:04;29.10;36.20
9057;DHT22;4563;54.756;9.400;2023-05-08T15:05:31;29.00;36.30
9057;DHT22;4563;54.756;9.400;2023-05-08T15:07:58;28.80;37.40
9057;DHT22;4563;54.756;9.400;2023-05-08T15:10:27;28.60;37.10
9057;DHT22;4563;54.756;9.400;2023-05-08T15:12:54;28.50;37.30
9057;DHT22;4563;54.756;9.400;2023-05-08T15:15:22;28.40;37.90
9057;DHT22;4563;54.756;9.400;2023-05-08T15:17:49;28.20;37.20
9057;DHT22;4563;54.756;9.400;2023-05-08T15:20:16;28.10;38.10
9057;DHT22;4563;54.756;9.400;2023-05-08T15:22:43;28.00;38.00
9057;DHT22;4563;54.756;9.400;2023-05-08T15:25:12;27.90;38.00
9057;DHT22;4563;54.756;9.400;2023-05-08T15:27:39;27.80;38.20
9057;DHT22;4563;54.756;9.400;2023-05-08T15:30:07;27.70;38.30
9057;DHT22;4563;54.756;9.400;2023-05-08T15:32:36;27.60;38.00
9057;DHT22;4563;54.756;9.400;2023-05-08T15:35:05;27.50;38.10
9057;DHT22;4563;54.756;9.400;2023-05-08T15:37:32;27.30;38.70
9057;DHT22;4563;54.756;9.400;2023-05-08T15:40:02;27.20;38.70
9057;DHT22;4563;54.756;9.400;2023-05-08T15:42:33;27.10;37.90
9057;DHT22;4563;54.756;9.400;2023-05-08T15:45:02;27.00;38.10
9057;DHT22;4563;54.756;9.400;2023-05-08T15:47:29;26.90;38.00
9057;DHT22;4563;54.756;9.400;2023-05-08T15:49:57;26.80;38.10
9057;DHT22;4563;54.756;9.400;2023-05-08T15:52:24;26.60;38.20
9057;DHT22;4563;54.756;9.400;2023-05-08T15:54:51;26.60;38.70
9057;DHT22;4563;54.756;9.400;2023-05-08T15:57:18;26.40;38.60
9057;DHT22;4563;54.756;9.400;2023-05-08T15:59:45;26.30;38.80
9057;DHT22;4563;54.756;9.400;2023-05-08T16:02:12;26.20;38.90
9057;DHT22;4563;54.756;9.400;2023-05-08T16:04:39;26.10;39.20
9057;DHT22;4563;54.756;9.400;2023-05-08T16:07:08;26.00;39.20
9057;DHT22;4563;54.756;9.400;2023-05-08T16:09:35;25.90;39.30
9057;DHT22;4563;54.756;9.400;2023-05-08T16:12:02;25.80;39.60
9057;DHT22;4563;54.756;9.400;2023-05-08T16:14:29;25.70;39.80
9057;DHT22;4563;54.756;9.400;2023-05-08T16:16:56;25.60;39.90
9057;DHT22;4563;54.756;9.400;2023-05-08T16:19:23;25.60;40.00
9057;DHT22;4563;54.756;9.400;2023-05-08T16:21:50;25.50;40.00